Decoded Metar for KELN (ELLENSBURG in WA, USA) (IATA:ELN) | Meteo·Mobile Aviation Weather
aviador You're here:

KELN Decoded Metar

ELLENSBURG in WA, USA
Report Time2019-04-23 15:53:00
UTC Time2019-04-23 16:21:12
Flight Rules vfr VFR
Wind310° at 14 Gusting to 21 kt
W.Decomp.*RWY 29: 14.0 kt HW 1.0 kt RCW
RWY 25: 10.1 kt HW 9.7 kt RCW
Visibility9999 m
Phenomena:N/A
Clouds:N/A
Expected CloudBase > 3,600 ft AGL from Temp-Dew spread
CeilingNone
Temp16°C (ISA +4)
Dew Point07°C (55% RH)
AAT10.3°C
QNH1019 hPa
Density Alt2,159 ft
Elevation1,703 ft
Report Wrong Elevation
Raw Report
KELN 231553Z AUTO 31014G21KT 10SM CLR 16/07 A3009 RMK AO2 SLP190
T01560072=

Extra information for KELN:More info

Metar Taf Metar & Taf Last 4 Metars F.Rules Stats Wind Profile Meteogram Temp Stats Airport Information Weather charts Add Link Nearby VenuesMetar ALERT Operation Metar Decoded Social comments

AIRNAV info for KELN